sensor_id;sensor_type;location;lat;lon;timestamp;pressure;altitude;pressure_sealevel;temperature;humidity
76128;BME280;64873;50.102;14.434;2023-03-29T00:00:22;99977.31;;;1.96;61.52
76128;BME280;64873;50.102;14.434;2023-03-29T00:02:48;99985.13;;;2.52;63.54
76128;BME280;64873;50.102;14.434;2023-03-29T00:05:15;99979.00;;;2.24;61.21
76128;BME280;64873;50.102;14.434;2023-03-29T00:07:42;99975.78;;;2.30;62.52
76128;BME280;64873;50.102;14.434;2023-03-29T00:10:09;99982.25;;;2.81;62.67
76128;BME280;64873;50.102;14.434;2023-03-29T00:12:37;99977.31;;;2.96;61.40
76128;BME280;64873;50.102;14.434;2023-03-29T00:15:04;99980.16;;;2.67;60.01
76128;BME280;64873;50.102;14.434;2023-03-29T00:17:31;99984.09;;;2.35;60.09
76128;BME280;64873;50.102;14.434;2023-03-29T00:19:59;99977.72;;;2.56;62.99
76128;BME280;64873;50.102;14.434;2023-03-29T00:22:29;99980.78;;;2.51;60.33
76128;BME280;64873;50.102;14.434;2023-03-29T00:24:54;99982.59;;;2.51;60.46
76128;BME280;64873;50.102;14.434;2023-03-29T00:27:20;99975.72;;;2.40;60.88
76128;BME280;64873;50.102;14.434;2023-03-29T00:29:49;99972.19;;;2.94;62.05
76128;BME280;64873;50.102;14.434;2023-03-29T00:32:17;99973.19;;;2.93;59.65
76128;BME280;64873;50.102;14.434;2023-03-29T00:34:47;99952.53;;;2.61;60.69
76128;BME280;64873;50.102;14.434;2023-03-29T00:37:28;99976.69;;;2.39;59.75
76128;BME280;64873;50.102;14.434;2023-03-29T00:40:10;99977.50;;;2.67;60.96
76128;BME280;64873;50.102;14.434;2023-03-29T00:42:43;99975.19;;;2.36;60.06
76128;BME280;64873;50.102;14.434;2023-03-29T00:45:16;99964.66;;;2.36;59.79
76128;BME280;64873;50.102;14.434;2023-03-29T00:47:54;99942.88;;;2.07;59.56
76128;BME280;64873;50.102;14.434;2023-03-29T00:53:24;99968.50;;;2.05;60.54
76128;BME280;64873;50.102;14.434;2023-03-29T00:56:00;99957.53;;;2.09;59.95
76128;BME280;64873;50.102;14.434;2023-03-29T00:58:47;99938.19;;;1.91;60.63
76128;BME280;64873;50.102;14.434;2023-03-29T01:01:18;99952.09;;;1.83;60.83
76128;BME280;64873;50.102;14.434;2023-03-29T01:03:51;99953.09;;;1.82;60.94
76128;BME280;64873;50.102;14.434;2023-03-29T01:06:21;99952.09;;;1.83;60.83
76128;BME280;64873;50.102;14.434;2023-03-29T01:08:53;99940.44;;;1.86;61.19
76128;BME280;64873;50.102;14.434;2023-03-29T01:11:36;99954.03;;;1.81;62.39
76128;BME280;64873;50.102;14.434;2023-03-29T01:14:04;99953.13;;;1.63;61.45
76128;BME280;64873;50.102;14.434;2023-03-29T01:16:34;99951.34;;;1.54;62.53
76128;BME280;64873;50.102;14.434;2023-03-29T01:19:03;99948.19;;;1.41;62.18
76128;BME280;64873;50.102;14.434;2023-03-29T01:21:42;99946.25;;;1.43;62.22
76128;BME280;64873;50.102;14.434;2023-03-29T01:24:16;99947.50;;;1.48;62.91
76128;BME280;64873;50.102;14.434;2023-03-29T01:29:40;99936.22;;;1.56;64.82
76128;BME280;64873;50.102;14.434;2023-03-29T01:32:32;99946.41;;;1.22;63.11
76128;BME280;64873;50.102;14.434;2023-03-29T01:35:38;99936.69;;;1.22;63.50
76128;BME280;64873;50.102;14.434;2023-03-29T01:38:13;99945.88;;;1.09;63.84
76128;BME280;64873;50.102;14.434;2023-03-29T01:40:40;99934.78;;;1.24;64.08
76128;BME280;64873;50.102;14.434;2023-03-29T01:43:40;99939.47;;;1.11;64.13
76128;BME280;64873;50.102;14.434;2023-03-29T01:46:30;99938.03;;;1.55;63.05
76128;BME280;64873;50.102;14.434;2023-03-29T01:49:24;99938.59;;;1.49;63.17
76128;BME280;64873;50.102;14.434;2023-03-29T01:51:57;99914.25;;;1.38;63.27
76128;BME280;64873;50.102;14.434;2023-03-29T01:54:32;99918.94;;;1.44;63.75
76128;BME280;64873;50.102;14.434;2023-03-29T01:57:00;99912.84;;;1.43;65.99
76128;BME280;64873;50.102;14.434;2023-03-29T01:59:31;99918.09;;;1.53;63.68
76128;BME280;64873;50.102;14.434;2023-03-29T02:02:00;99916.31;;;1.44;62.98
76128;BME280;64873;50.102;14.434;2023-03-29T02:04:34;99918.56;;;1.76;64.76
76128;BME280;64873;50.102;14.434;2023-03-29T02:07:02;99911.19;;;1.32;63.00
76128;BME280;64873;50.102;14.434;2023-03-29T02:09:29;99903.13;;;1.44;63.09
76128;BME280;64873;50.102;14.434;2023-03-29T02:11:58;99920.63;;;1.35;62.71
76128;BME280;64873;50.102;14.434;2023-03-29T02:14:25;99914.81;;;1.31;62.82
76128;BME280;64873;50.102;14.434;2023-03-29T02:16:50;99896.72;;;1.56;62.03
76128;BME280;64873;50.102;14.434;2023-03-29T02:19:17;99904.63;;;1.56;61.83
76128;BME280;64873;50.102;14.434;2023-03-29T02:21:58;99894.50;;;1.61;61.75
76128;BME280;64873;50.102;14.434;2023-03-29T02:24:28;99891.75;;;1.53;62.73
76128;BME280;64873;50.102;14.434;2023-03-29T02:26:58;99873.59;;;1.50;64.74
76128;BME280;64873;50.102;14.434;2023-03-29T02:29:24;99876.00;;;1.33;62.62
76128;BME280;64873;50.102;14.434;2023-03-29T02:31:53;99879.03;;;1.39;64.33
76128;BME280;64873;50.102;14.434;2023-03-29T02:34:32;99870.47;;;1.74;65.11
76128;BME280;64873;50.102;14.434;2023-03-29T02:37:13;99883.88;;;1.80;62.78
76128;BME280;64873;50.102;14.434;2023-03-29T02:39:42;99885.59;;;1.72;62.86
76128;BME280;64873;50.102;14.434;2023-03-29T02:42:08;99876.56;;;1.74;64.29
76128;BME280;64873;50.102;14.434;2023-03-29T02:44:37;99854.59;;;1.56;63.32
76128;BME280;64873;50.102;14.434;2023-03-29T02:47:12;99868.84;;;1.91;64.73
76128;BME280;64873;50.102;14.434;2023-03-29T02:49:39;99861.44;;;1.39;63.87
76128;BME280;64873;50.102;14.434;2023-03-29T02:52:11;99863.66;;;1.99;65.48
76128;BME280;64873;50.102;14.434;2023-03-29T02:54:39;99852.50;;;2.32;66.00
76128;BME280;64873;50.102;14.434;2023-03-29T02:57:08;99859.75;;;2.30;64.51
76128;BME280;64873;50.102;14.434;2023-03-29T02:59:34;99838.44;;;1.96;63.91
76128;BME280;64873;50.102;14.434;2023-03-29T03:02:00;99852.88;;;2.20;65.26
76128;BME280;64873;50.102;14.434;2023-03-29T03:04:26;99848.38;;;2.30;63.91
76128;BME280;64873;50.102;14.434;2023-03-29T03:06:52;99859.94;;;2.01;62.89
76128;BME280;64873;50.102;14.434;2023-03-29T03:09:17;99862.94;;;1.79;62.80
76128;BME280;64873;50.102;14.434;2023-03-29T03:11:43;99859.09;;;1.73;63.56
76128;BME280;64873;50.102;14.434;2023-03-29T03:14:09;99840.09;;;1.70;64.14
76128;BME280;64873;50.102;14.434;2023-03-29T03:16:35;99850.50;;;1.71;64.22
76128;BME280;64873;50.102;14.434;2023-03-29T03:19:01;99832.94;;;1.62;64.26
76128;BME280;64873;50.102;14.434;2023-03-29T03:21:26;99846.00;;;1.54;63.97
76128;BME280;64873;50.102;14.434;2023-03-29T03:23:54;99829.13;;;1.47;64.01
76128;BME280;64873;50.102;14.434;2023-03-29T03:26:21;99851.16;;;1.46;64.37
76128;BME280;64873;50.102;14.434;2023-03-29T03:28:47;99845.75;;;1.47;64.26
76128;BME280;64873;50.102;14.434;2023-03-29T03:31:12;99852.69;;;1.48;64.28
76128;BME280;64873;50.102;14.434;2023-03-29T03:33:39;99844.63;;;1.50;63.00
76128;BME280;64873;50.102;14.434;2023-03-29T03:36:09;99840.44;;;1.57;63.64
76128;BME280;64873;50.102;14.434;2023-03-29T03:38:36;99839.66;;;1.47;64.61
76128;BME280;64873;50.102;14.434;2023-03-29T03:41:02;99821.69;;;1.32;63.79
76128;BME280;64873;50.102;14.434;2023-03-29T03:43:28;99832.13;;;1.52;63.42
76128;BME280;64873;50.102;14.434;2023-03-29T03:45:54;99814.94;;;1.20;64.22
76128;BME280;64873;50.102;14.434;2023-03-29T03:48:21;99841.75;;;1.43;63.63
76128;BME280;64873;50.102;14.434;2023-03-29T03:50:52;99845.03;;;1.55;63.02
76128;BME280;64873;50.102;14.434;2023-03-29T03:53:18;99858.22;;;1.45;62.77
76128;BME280;64873;50.102;14.434;2023-03-29T03:55:48;99849.34;;;1.46;63.95
76128;BME280;64873;50.102;14.434;2023-03-29T03:58:14;99841.16;;;1.49;62.64
76128;BME280;64873;50.102;14.434;2023-03-29T04:00:40;99838.56;;;1.40;62.47
76128;BME280;64873;50.102;14.434;2023-03-29T04:03:06;99834.19;;;1.30;63.38
76128;BME280;64873;50.102;14.434;2023-03-29T04:05:31;99828.84;;;1.50;62.21
76128;BME280;64873;50.102;14.434;2023-03-29T04:07:56;99844.94;;;1.47;62.44
76128;BME280;64873;50.102;14.434;2023-03-29T04:10:22;99832.13;;;1.52;62.60
76128;BME280;64873;50.102;14.434;2023-03-29T04:12:47;99817.81;;;1.37;62.79
76128;BME280;64873;50.102;14.434;2023-03-29T04:15:13;99830.81;;;1.38;63.06
76128;BME280;64873;50.102;14.434;2023-03-29T04:17:38;99834.34;;;1.56;62.66
76128;BME280;64873;50.102;14.434;2023-03-29T04:20:04;99818.03;;;1.53;62.67
76128;BME280;64873;50.102;14.434;2023-03-29T04:22:37;99831.28;;;1.61;63.33
76128;BME280;64873;50.102;14.434;2023-03-29T04:25:04;99829.84;;;1.76;62.17
76128;BME280;64873;50.102;14.434;2023-03-29T04:27:30;99834.00;;;1.97;61.19
76128;BME280;64873;50.102;14.434;2023-03-29T04:29:56;99825.50;;;1.75;60.79
76128;BME280;64873;50.102;14.434;2023-03-29T04:32:21;99831.69;;;1.66;61.67
76128;BME280;64873;50.102;14.434;2023-03-29T04:34:47;99808.75;;;1.76;62.79
76128;BME280;64873;50.102;14.434;2023-03-29T04:37:12;99829.47;;;1.89;60.89
76128;BME280;64873;50.102;14.434;2023-03-29T04:39:37;99814.50;;;1.90;61.08
76128;BME280;64873;50.102;14.434;2023-03-29T04:42:04;99820.78;;;1.79;61.73
76128;BME280;64873;50.102;14.434;2023-03-29T04:44:29;99823.38;;;1.89;61.06
76128;BME280;64873;50.102;14.434;2023-03-29T04:47:00;99832.66;;;2.10;60.32
76128;BME280;64873;50.102;14.434;2023-03-29T04:49:25;99813.13;;;1.85;61.66
76128;BME280;64873;50.102;14.434;2023-03-29T04:51:51;99826.94;;;1.97;60.58
76128;BME280;64873;50.102;14.434;2023-03-29T04:54:17;99816.22;;;1.99;60.70
76128;BME280;64873;50.102;14.434;2023-03-29T04:56:43;99826.66;;;2.18;61.20
76128;BME280;64873;50.102;14.434;2023-03-29T04:59:08;99826.56;;;2.10;60.88
76128;BME280;64873;50.102;14.434;2023-03-29T05:01:33;99824.97;;;1.99;60.44
76128;BME280;64873;50.102;14.434;2023-03-29T05:03:59;99814.78;;;1.86;61.05
76128;BME280;64873;50.102;14.434;2023-03-29T05:06:25;99823.31;;;1.98;60.60
76128;BME280;64873;50.102;14.434;2023-03-29T05:08:50;99802.53;;;1.95;61.66
76128;BME280;64873;50.102;14.434;2023-03-29T05:11:16;99815.88;;;1.94;60.70
76128;BME280;64873;50.102;14.434;2023-03-29T05:13:43;99818.19;;;1.97;60.47
76128;BME280;64873;50.102;14.434;2023-03-29T05:16:09;99829.78;;;2.04;59.97
76128;BME280;64873;50.102;14.434;2023-03-29T05:18:35;99808.84;;;1.84;60.38
76128;BME280;64873;50.102;14.434;2023-03-29T05:21:01;99815.88;;;1.94;59.96
76128;BME280;64873;50.102;14.434;2023-03-29T05:23:27;99827.25;;;1.94;60.94
76128;BME280;64873;50.102;14.434;2023-03-29T05:25:53;99818.78;;;1.91;60.68
76128;BME280;64873;50.102;14.434;2023-03-29T05:28:18;99825.38;;;2.22;62.77
76128;BME280;64873;50.102;14.434;2023-03-29T05:30:45;99805.41;;;2.02;60.80
76128;BME280;64873;50.102;14.434;2023-03-29T05:33:10;99823.66;;;2.13;59.91
76128;BME280;64873;50.102;14.434;2023-03-29T05:35:36;99805.66;;;2.26;61.25
76128;BME280;64873;50.102;14.434;2023-03-29T05:38:03;99804.97;;;2.42;59.68
76128;BME280;64873;50.102;14.434;2023-03-29T05:40:30;99805.47;;;2.46;59.18
76128;BME280;64873;50.102;14.434;2023-03-29T05:42:56;99806.09;;;2.39;59.75
76128;BME280;64873;50.102;14.434;2023-03-29T05:45:22;99812.88;;;2.60;58.48
76128;BME280;64873;50.102;14.434;2023-03-29T05:47:49;99802.31;;;2.60;58.26
76128;BME280;64873;50.102;14.434;2023-03-29T05:50:14;99800.28;;;2.72;58.41
76128;BME280;64873;50.102;14.434;2023-03-29T05:52:40;99805.38;;;2.73;59.88
76128;BME280;64873;50.102;14.434;2023-03-29T05:55:06;99795.63;;;2.91;59.97
76128;BME280;64873;50.102;14.434;2023-03-29T05:57:35;99792.50;;;2.88;58.09
76128;BME280;64873;50.102;14.434;2023-03-29T06:00:02;99784.31;;;2.81;57.21
76128;BME280;64873;50.102;14.434;2023-03-29T06:02:43;99782.97;;;2.95;56.67
76128;BME280;64873;50.102;14.434;2023-03-29T06:05:09;99765.31;;;2.96;56.42
76128;BME280;64873;50.102;14.434;2023-03-29T06:07:34;99784.28;;;3.25;55.94
76128;BME280;64873;50.102;14.434;2023-03-29T06:10:00;99785.00;;;3.35;54.91
76128;BME280;64873;50.102;14.434;2023-03-29T06:12:26;99775.91;;;3.30;55.07
76128;BME280;64873;50.102;14.434;2023-03-29T06:14:52;99773.56;;;3.27;54.64
76128;BME280;64873;50.102;14.434;2023-03-29T06:17:17;99771.31;;;3.06;56.05
76128;BME280;64873;50.102;14.434;2023-03-29T06:19:43;99772.97;;;3.07;56.21
76128;BME280;64873;50.102;14.434;2023-03-29T06:22:08;99775.47;;;3.51;55.25
76128;BME280;64873;50.102;14.434;2023-03-29T06:24:34;99759.41;;;3.78;52.95
76128;BME280;64873;50.102;14.434;2023-03-29T06:26:59;99761.75;;;3.97;56.08
76128;BME280;64873;50.102;14.434;2023-03-29T06:29:25;99765.59;;;4.19;54.61
76128;BME280;64873;50.102;14.434;2023-03-29T06:31:50;99779.97;;;4.09;52.50
76128;BME280;64873;50.102;14.434;2023-03-29T06:34:17;99772.84;;;4.01;52.66
76128;BME280;64873;50.102;14.434;2023-03-29T06:36:43;99783.50;;;3.75;53.14
76128;BME280;64873;50.102;14.434;2023-03-29T06:39:10;99780.31;;;4.22;56.72
76128;BME280;64873;50.102;14.434;2023-03-29T06:41:35;99780.94;;;4.16;53.95
76128;BME280;64873;50.102;14.434;2023-03-29T06:44:00;99774.19;;;4.05;53.38
76128;BME280;64873;50.102;14.434;2023-03-29T06:46:28;99776.09;;;3.87;52.83
76128;BME280;64873;50.102;14.434;2023-03-29T06:48:53;99769.25;;;4.18;52.70
76128;BME280;64873;50.102;14.434;2023-03-29T06:51:19;99765.34;;;3.80;53.29
76128;BME280;64873;50.102;14.434;2023-03-29T06:53:44;99770.06;;;3.60;53.07
76128;BME280;64873;50.102;14.434;2023-03-29T06:56:10;99777.59;;;3.81;53.25
76128;BME280;64873;50.102;14.434;2023-03-29T06:58:36;99784.75;;;4.13;52.21
76128;BME280;64873;50.102;14.434;2023-03-29T07:01:01;99767.69;;;3.83;52.41
76128;BME280;64873;50.102;14.434;2023-03-29T07:03:27;99775.66;;;4.16;51.83
76128;BME280;64873;50.102;14.434;2023-03-29T07:05:59;99772.03;;;4.33;51.62
76128;BME280;64873;50.102;14.434;2023-03-29T07:08:26;99767.75;;;4.57;50.68
76128;BME280;64873;50.102;14.434;2023-03-29T07:10:56;99769.75;;;4.30;51.01
76128;BME280;64873;50.102;14.434;2023-03-29T07:13:23;99771.06;;;4.42;50.90
76128;BME280;64873;50.102;14.434;2023-03-29T07:15:48;99768.06;;;4.21;52.37
76128;BME280;64873;50.102;14.434;2023-03-29T07:18:14;99780.84;;;4.42;50.66
76128;BME280;64873;50.102;14.434;2023-03-29T07:20:41;99768.44;;;4.34;50.96
76128;BME280;64873;50.102;14.434;2023-03-29T07:23:08;99769.44;;;4.41;51.30
76128;BME280;64873;50.102;14.434;2023-03-29T07:25:34;99764.63;;;4.28;51.57
76128;BME280;64873;50.102;14.434;2023-03-29T07:28:00;99776.19;;;4.44;51.95
76128;BME280;64873;50.102;14.434;2023-03-29T07:30:27;99778.84;;;4.36;51.30
76128;BME280;64873;50.102;14.434;2023-03-29T07:32:54;99783.47;;;4.50;51.53
76128;BME280;64873;50.102;14.434;2023-03-29T07:35:21;99775.38;;;4.60;50.94
76128;BME280;64873;50.102;14.434;2023-03-29T07:37:47;99776.03;;;4.45;50.77
76128;BME280;64873;50.102;14.434;2023-03-29T07:40:15;99776.03;;;4.29;51.64
76128;BME280;64873;50.102;14.434;2023-03-29T07:42:49;99765.78;;;4.75;51.12
76128;BME280;64873;50.102;14.434;2023-03-29T07:45:15;99768.22;;;3.95;52.82
76128;BME280;64873;50.102;14.434;2023-03-29T07:47:45;99762.81;;;4.70;53.40
76128;BME280;64873;50.102;14.434;2023-03-29T07:50:11;99774.88;;;4.56;52.20
76128;BME280;64873;50.102;14.434;2023-03-29T07:52:37;99774.69;;;4.74;51.74
76128;BME280;64873;50.102;14.434;2023-03-29T07:55:07;99767.75;;;4.57;52.74
76128;BME280;64873;50.102;14.434;2023-03-29T07:57:33;99777.34;;;4.66;52.63
76128;BME280;64873;50.102;14.434;2023-03-29T07:59:59;99769.09;;;4.61;52.95
76128;BME280;64873;50.102;14.434;2023-03-29T08:02:25;99754.53;;;4.65;52.78
76128;BME280;64873;50.102;14.434;2023-03-29T08:04:54;99747.22;;;4.83;51.75
76128;BME280;64873;50.102;14.434;2023-03-29T08:07:20;99767.00;;;5.20;51.12
76128;BME280;64873;50.102;14.434;2023-03-29T08:09:46;99772.31;;;5.20;52.43
76128;BME280;64873;50.102;14.434;2023-03-29T08:12:11;99762.66;;;5.35;51.52
76128;BME280;64873;50.102;14.434;2023-03-29T08:14:37;99744.91;;;4.80;52.19
76128;BME280;64873;50.102;14.434;2023-03-29T08:17:03;99765.06;;;4.97;52.50
76128;BME280;64873;50.102;14.434;2023-03-29T08:19:28;99758.13;;;4.96;54.00
76128;BME280;64873;50.102;14.434;2023-03-29T08:21:53;99754.84;;;4.78;52.91
76128;BME280;64873;50.102;14.434;2023-03-29T08:24:19;99747.56;;;4.72;53.11
76128;BME280;64873;50.102;14.434;2023-03-29T08:26:44;99763.41;;;4.96;53.39
76128;BME280;64873;50.102;14.434;2023-03-29T08:29:10;99765.69;;;5.16;52.56
76128;BME280;64873;50.102;14.434;2023-03-29T08:31:36;99768.34;;;5.16;52.73
76128;BME280;64873;50.102;14.434;2023-03-29T08:34:01;99773.13;;;5.20;52.97
76128;BME280;64873;50.102;14.434;2023-03-29T08:36:27;99751.28;;;5.18;56.65
76128;BME280;64873;50.102;14.434;2023-03-29T08:38:52;99757.38;;;5.35;53.48
76128;BME280;64873;50.102;14.434;2023-03-29T08:49:33;99762.63;;;5.51;53.96
76128;BME280;64873;50.102;14.434;2023-03-29T08:52:05;99758.03;;;5.68;53.50
76128;BME280;64873;50.102;14.434;2023-03-29T08:54:42;99750.56;;;5.41;54.14
76128;BME280;64873;50.102;14.434;2023-03-29T08:57:23;99765.75;;;4.99;56.57
76128;BME280;64873;50.102;14.434;2023-03-29T08:59:53;99755.66;;;4.95;57.42
76128;BME280;64873;50.102;14.434;2023-03-29T09:02:25;99761.75;;;5.03;58.34
76128;BME280;64873;50.102;14.434;2023-03-29T09:04:56;99758.19;;;5.35;57.39
76128;BME280;64873;50.102;14.434;2023-03-29T09:07:24;99770.47;;;5.68;58.39
76128;BME280;64873;50.102;14.434;2023-03-29T09:09:50;99773.59;;;5.32;61.21
76128;BME280;64873;50.102;14.434;2023-03-29T09:20:10;99749.75;;;4.52;68.58
76128;BME280;64873;50.102;14.434;2023-03-29T09:22:53;99753.84;;;4.63;69.26
76128;BME280;64873;50.102;14.434;2023-03-29T09:25:51;99756.53;;;4.30;70.28
76128;BME280;64873;50.102;14.434;2023-03-29T09:28:27;99750.91;;;4.58;69.45
76128;BME280;64873;50.102;14.434;2023-03-29T09:31:41;99748.91;;;4.68;68.64
76128;BME280;64873;50.102;14.434;2023-03-29T09:34:23;99745.25;;;4.44;69.84
76128;BME280;64873;50.102;14.434;2023-03-29T09:37:00;99743.53;;;5.08;67.67
76128;BME280;64873;50.102;14.434;2023-03-29T09:39:27;99736.22;;;5.19;68.16
76128;BME280;64873;50.102;14.434;2023-03-29T09:41:54;99730.03;;;5.34;67.94
76128;BME280;64873;50.102;14.434;2023-03-29T09:44:24;99730.97;;;5.11;66.66
76128;BME280;64873;50.102;14.434;2023-03-29T09:47:01;99729.13;;;5.11;67.75
76128;BME280;64873;50.102;14.434;2023-03-29T09:49:33;99734.34;;;5.27;66.71
76128;BME280;64873;50.102;14.434;2023-03-29T09:52:07;99726.81;;;6.09;64.44
76128;BME280;64873;50.102;14.434;2023-03-29T09:54:34;99732.59;;;5.59;65.46
76128;BME280;64873;50.102;14.434;2023-03-29T09:56:59;99724.41;;;5.69;65.06
76128;BME280;64873;50.102;14.434;2023-03-29T09:59:26;99726.63;;;5.88;64.86
76128;BME280;64873;50.102;14.434;2023-03-29T10:01:51;99735.81;;;5.38;64.45
76128;BME280;64873;50.102;14.434;2023-03-29T10:04:17;99723.31;;;5.86;64.20
76128;BME280;64873;50.102;14.434;2023-03-29T10:06:52;99727.75;;;5.62;65.34
76128;BME280;64873;50.102;14.434;2023-03-29T10:09:22;99716.00;;;5.88;64.33
76128;BME280;64873;50.102;14.434;2023-03-29T10:11:56;99719.13;;;6.23;62.91
76128;BME280;64873;50.102;14.434;2023-03-29T10:14:37;99697.03;;;5.76;63.94
76128;BME280;64873;50.102;14.434;2023-03-29T10:17:17;99712.28;;;6.05;63.13
76128;BME280;64873;50.102;14.434;2023-03-29T10:19:51;99716.28;;;6.01;63.08
76128;BME280;64873;50.102;14.434;2023-03-29T10:22:32;99700.75;;;5.98;63.53
76128;BME280;64873;50.102;14.434;2023-03-29T10:24:59;99700.84;;;5.74;64.58
76128;BME280;64873;50.102;14.434;2023-03-29T10:27:29;99703.31;;;6.06;63.10
76128;BME280;64873;50.102;14.434;2023-03-29T10:29:57;99704.72;;;5.94;63.16
76128;BME280;64873;50.102;14.434;2023-03-29T10:32:30;99714.38;;;6.33;63.40
76128;BME280;64873;50.102;14.434;2023-03-29T10:35:17;99702.44;;;6.14;62.84
76128;BME280;64873;50.102;14.434;2023-03-29T10:37:48;99690.06;;;6.44;61.99
76128;BME280;64873;50.102;14.434;2023-03-29T10:40:18;99695.75;;;6.41;62.04
76128;BME280;64873;50.102;14.434;2023-03-29T10:42:47;99691.09;;;5.97;63.64
76128;BME280;64873;50.102;14.434;2023-03-29T10:45:32;99700.34;;;6.47;62.28
76128;BME280;64873;50.102;14.434;2023-03-29T10:47:58;99687.13;;;6.39;62.30
76128;BME280;64873;50.102;14.434;2023-03-29T10:50:25;99677.72;;;6.13;62.59
76128;BME280;64873;50.102;14.434;2023-03-29T10:52:57;99665.84;;;6.62;61.32
76128;BME280;64873;50.102;14.434;2023-03-29T10:55:31;99668.34;;;6.93;60.16
76128;BME280;64873;50.102;14.434;2023-03-29T11:00:45;99674.00;;;6.60;62.29
76128;BME280;64873;50.102;14.434;2023-03-29T11:03:31;99679.31;;;7.19;59.02
76128;BME280;64873;50.102;14.434;2023-03-29T11:08:51;99664.25;;;7.27;59.02
76128;BME280;64873;50.102;14.434;2023-03-29T11:19:25;99642.34;;;7.75;59.08
76128;BME280;64873;50.102;14.434;2023-03-29T11:28:00;99642.81;;;8.07;57.75
76128;BME280;64873;50.102;14.434;2023-03-29T11:30:34;99631.81;;;7.89;57.75
76128;BME280;64873;50.102;14.434;2023-03-29T11:35:57;99628.91;;;8.05;57.76
76128;BME280;64873;50.102;14.434;2023-03-29T11:38:38;99639.56;;;8.33;56.66
76128;BME280;64873;50.102;14.434;2023-03-29T11:41:17;99631.38;;;7.64;58.24
76128;BME280;64873;50.102;14.434;2023-03-29T11:43:47;99613.78;;;8.34;57.02
76128;BME280;64873;50.102;14.434;2023-03-29T11:46:25;99622.13;;;8.52;58.19
76128;BME280;64873;50.102;14.434;2023-03-29T11:49:08;99623.75;;;8.53;58.38
76128;BME280;64873;50.102;14.434;2023-03-29T11:51:43;99604.00;;;7.91;58.07
76128;BME280;64873;50.102;14.434;2023-03-29T12:07:54;99586.25;;;8.26;57.00
76128;BME280;64873;50.102;14.434;2023-03-29T12:10:30;99570.28;;;8.96;55.54
76128;BME280;64873;50.102;14.434;2023-03-29T12:13:30;99577.53;;;8.67;56.78
76128;BME280;64873;50.102;14.434;2023-03-29T12:16:00;99578.34;;;9.09;57.65
76128;BME280;64873;50.102;14.434;2023-03-29T12:18:32;99572.31;;;9.55;53.88
76128;BME280;64873;50.102;14.434;2023-03-29T12:21:03;99559.13;;;8.72;55.55
76128;BME280;64873;50.102;14.434;2023-03-29T12:23:31;99555.19;;;9.16;54.62
76128;BME280;64873;50.102;14.434;2023-03-29T12:39:42;99545.44;;;9.89;53.00
76128;BME280;64873;50.102;14.434;2023-03-29T12:42:14;99546.25;;;9.57;54.02
76128;BME280;64873;50.102;14.434;2023-03-29T12:44:50;99546.63;;;9.41;54.67
76128;BME280;64873;50.102;14.434;2023-03-29T12:47:22;99557.97;;;9.63;54.40
76128;BME280;64873;50.102;14.434;2023-03-29T12:49:57;99549.97;;;10.09;53.35
76128;BME280;64873;50.102;14.434;2023-03-29T12:52:32;99534.72;;;10.43;51.65
76128;BME280;64873;50.102;14.434;2023-03-29T12:55:02;99542.16;;;9.87;53.00
76128;BME280;64873;50.102;14.434;2023-03-29T12:57:40;99530.47;;;9.88;52.80
76128;BME280;64873;50.102;14.434;2023-03-29T13:00:25;99547.09;;;10.17;52.57
76128;BME280;64873;50.102;14.434;2023-03-29T13:03:02;99535.41;;;9.98;54.25
76128;BME280;64873;50.102;14.434;2023-03-29T13:05:33;99533.72;;;10.44;52.07
76128;BME280;64873;50.102;14.434;2023-03-29T13:08:18;99511.66;;;10.68;51.47
76128;BME280;64873;50.102;14.434;2023-03-29T13:10:51;99524.50;;;10.06;52.62
76128;BME280;64873;50.102;14.434;2023-03-29T13:13:23;99525.28;;;10.47;53.42
76128;BME280;64873;50.102;14.434;2023-03-29T13:15:50;99523.47;;;10.07;52.50
76128;BME280;64873;50.102;14.434;2023-03-29T13:20:46;99516.53;;;10.78;51.50
76128;BME280;64873;50.102;14.434;2023-03-29T13:23:29;99504.19;;;10.77;50.52
76128;BME280;64873;50.102;14.434;2023-03-29T13:28:56;99500.34;;;11.11;49.86
76128;BME280;64873;50.102;14.434;2023-03-29T13:31:45;99498.78;;;11.28;49.75
76128;BME280;64873;50.102;14.434;2023-03-29T13:39:18;99498.38;;;11.88;48.54
76128;BME280;64873;50.102;14.434;2023-03-29T13:41:50;99492.03;;;11.82;48.45
76128;BME280;64873;50.102;14.434;2023-03-29T13:46:48;99478.81;;;11.87;47.81
76128;BME280;64873;50.102;14.434;2023-03-29T13:49:26;99475.72;;;11.59;48.66
76128;BME280;64873;50.102;14.434;2023-03-29T13:54:49;99472.63;;;11.30;49.43
76128;BME280;64873;50.102;14.434;2023-03-29T13:57:23;99474.09;;;11.58;49.50
76128;BME280;64873;50.102;14.434;2023-03-29T13:59:59;99470.00;;;11.55;49.36
76128;BME280;64873;50.102;14.434;2023-03-29T14:02:39;99471.03;;;11.23;51.15
76128;BME280;64873;50.102;14.434;2023-03-29T14:05:08;99461.47;;;11.40;51.64
76128;BME280;64873;50.102;14.434;2023-03-29T14:07:36;99463.44;;;11.19;51.09
76128;BME280;64873;50.102;14.434;2023-03-29T14:10:03;99467.72;;;11.27;51.24
76128;BME280;64873;50.102;14.434;2023-03-29T14:12:35;99454.88;;;11.11;52.20
76128;BME280;64873;50.102;14.434;2023-03-29T14:15:04;99464.53;;;11.43;50.61
76128;BME280;64873;50.102;14.434;2023-03-29T14:17:30;99458.56;;;11.41;50.50
76128;BME280;64873;50.102;14.434;2023-03-29T14:19:58;99445.63;;;11.07;52.43
76128;BME280;64873;50.102;14.434;2023-03-29T14:22:31;99449.50;;;10.73;52.29
76128;BME280;64873;50.102;14.434;2023-03-29T14:25:01;99448.31;;;10.68;52.65
76128;BME280;64873;50.102;14.434;2023-03-29T14:27:29;99436.03;;;10.54;53.45
76128;BME280;64873;50.102;14.434;2023-03-29T14:29:56;99426.13;;;10.68;53.03
76128;BME280;64873;50.102;14.434;2023-03-29T14:32:29;99425.59;;;10.84;51.47
76128;BME280;64873;50.102;14.434;2023-03-29T14:34:55;99435.66;;;10.89;52.05
76128;BME280;64873;50.102;14.434;2023-03-29T14:37:25;99434.16;;;11.00;51.95
76128;BME280;64873;50.102;14.434;2023-03-29T14:39:52;99420.50;;;11.08;51.58
76128;BME280;64873;50.102;14.434;2023-03-29T14:42:24;99420.38;;;10.96;51.96